sensor_id;sensor_type;location;lat;lon;timestamp;pressure;altitude;pressure_sealevel;temperature;humidity
55424;BME280;41294;42.666;23.350;2022-09-09T00:01:54;95237.22;;;19.07;90.72
55424;BME280;41294;42.666;23.350;2022-09-09T00:04:36;95226.81;;;19.09;90.45
55424;BME280;41294;42.666;23.350;2022-09-09T00:07:45;95223.16;;;19.01;90.57
55424;BME280;41294;42.666;23.350;2022-09-09T00:10:36;95231.19;;;19.07;90.26
55424;BME280;41294;42.666;23.350;2022-09-09T00:16:00;95233.34;;;18.92;91.67
55424;BME280;41294;42.666;23.350;2022-09-09T00:18:49;95234.81;;;18.98;91.31
55424;BME280;41294;42.666;23.350;2022-09-09T00:21:18;95234.78;;;18.88;91.90
55424;BME280;41294;42.666;23.350;2022-09-09T00:23:55;95218.28;;;18.78;92.53
55424;BME280;41294;42.666;23.350;2022-09-09T00:31:30;95207.88;;;18.80;92.46
55424;BME280;41294;42.666;23.350;2022-09-09T00:34:13;95203.72;;;18.74;93.07
55424;BME280;41294;42.666;23.350;2022-09-09T00:36:41;95202.75;;;18.66;93.04
55424;BME280;41294;42.666;23.350;2022-09-09T00:39:15;95201.75;;;18.58;93.84
55424;BME280;41294;42.666;23.350;2022-09-09T00:42:16;95198.63;;;18.70;93.56
55424;BME280;41294;42.666;23.350;2022-09-09T00:47:39;95183.56;;;18.56;94.08
55424;BME280;41294;42.666;23.350;2022-09-09T00:50:34;95191.34;;;18.54;94.88
55424;BME280;41294;42.666;23.350;2022-09-09T00:56:13;95192.78;;;18.55;94.76
55424;BME280;41294;42.666;23.350;2022-09-09T00:59:16;95193.78;;;18.63;94.30
55424;BME280;41294;42.666;23.350;2022-09-09T01:01:46;95192.78;;;18.55;94.44
55424;BME280;41294;42.666;23.350;2022-09-09T01:04:19;95194.72;;;18.60;94.62
55424;BME280;41294;42.666;23.350;2022-09-09T01:06:52;95191.78;;;18.47;94.91
55424;BME280;41294;42.666;23.350;2022-09-09T01:09:52;95192.78;;;18.50;95.37
55424;BME280;41294;42.666;23.350;2022-09-09T01:15:41;95188.91;;;18.56;94.48
55424;BME280;41294;42.666;23.350;2022-09-09T01:17:47;95203.44;;;18.61;94.41
55424;BME280;41294;42.666;23.350;2022-09-09T01:20:25;95201.03;;;18.57;94.34
55424;BME280;41294;42.666;23.350;2022-09-09T01:23:26;95202.69;;;18.49;95.03
55424;BME280;41294;42.666;23.350;2022-09-09T01:28:34;95200.03;;;18.44;94.96
55424;BME280;41294;42.666;23.350;2022-09-09T01:31:04;95193.94;;;18.32;95.39
55424;BME280;41294;42.666;23.350;2022-09-09T01:33:31;95198.78;;;18.34;95.36
55424;BME280;41294;42.666;23.350;2022-09-09T01:36:18;95201.22;;;18.37;95.09
55424;BME280;41294;42.666;23.350;2022-09-09T01:38:45;95206.06;;;18.33;95.07
55424;BME280;41294;42.666;23.350;2022-09-09T01:41:10;95215.91;;;18.16;96.38
55424;BME280;41294;42.666;23.350;2022-09-09T01:43:36;95212.56;;;18.21;96.57
55424;BME280;41294;42.666;23.350;2022-09-09T01:46:02;95205.00;;;18.14;96.98
55424;BME280;41294;42.666;23.350;2022-09-09T01:48:28;95206.22;;;18.19;96.38
55424;BME280;41294;42.666;23.350;2022-09-09T01:50:55;95210.63;;;18.22;96.29
55424;BME280;41294;42.666;23.350;2022-09-09T01:53:21;95211.59;;;18.24;96.09
55424;BME280;41294;42.666;23.350;2022-09-09T02:01:31;95222.25;;;18.24;95.80
55424;BME280;41294;42.666;23.350;2022-09-09T02:04:04;95215.41;;;18.13;96.45
55424;BME280;41294;42.666;23.350;2022-09-09T02:06:40;95220.44;;;18.00;97.25
55424;BME280;41294;42.666;23.350;2022-09-09T02:09:07;95207.16;;;18.11;96.77
55424;BME280;41294;42.666;23.350;2022-09-09T02:11:37;95204.72;;;18.02;97.05
55424;BME280;41294;42.666;23.350;2022-09-09T02:14:10;95210.97;;;17.93;97.48
55424;BME280;41294;42.666;23.350;2022-09-09T02:16:50;95203.25;;;18.01;97.19
55424;BME280;41294;42.666;23.350;2022-09-09T02:19:27;95199.88;;;18.06;97.18
55424;BME280;41294;42.666;23.350;2022-09-09T02:21:57;95189.94;;;18.01;96.96
55424;BME280;41294;42.666;23.350;2022-09-09T02:24:26;95183.41;;;18.02;97.17
55424;BME280;41294;42.666;23.350;2022-09-09T02:26:53;95192.28;;;17.88;97.73
55424;BME280;41294;42.666;23.350;2022-09-09T02:29:30;95191.38;;;17.96;97.37
55424;BME280;41294;42.666;23.350;2022-09-09T02:32:00;95198.88;;;17.98;97.04
55424;BME280;41294;42.666;23.350;2022-09-09T02:34:30;95205.13;;;17.95;97.42
55424;BME280;41294;42.666;23.350;2022-09-09T02:36:57;95202.06;;;18.02;97.10
55424;BME280;41294;42.666;23.350;2022-09-09T02:39:25;95203.75;;;18.05;96.76
55424;BME280;41294;42.666;23.350;2022-09-09T02:41:50;95199.84;;;18.00;97.15
55424;BME280;41294;42.666;23.350;2022-09-09T02:44:17;95203.25;;;18.01;96.78
55424;BME280;41294;42.666;23.350;2022-09-09T02:52:06;95226.47;;;17.95;96.99
55424;BME280;41294;42.666;23.350;2022-09-09T02:54:34;95221.13;;;17.95;96.76
55424;BME280;41294;42.666;23.350;2022-09-09T02:57:10;95217.22;;;17.85;97.39
55424;BME280;41294;42.666;23.350;2022-09-09T02:59:37;95222.97;;;17.72;97.72
55424;BME280;41294;42.666;23.350;2022-09-09T03:02:03;95217.09;;;17.63;98.18
55424;BME280;41294;42.666;23.350;2022-09-09T03:04:32;95212.72;;;17.60;98.16
55424;BME280;41294;42.666;23.350;2022-09-09T03:06:59;95216.66;;;17.70;98.40
55424;BME280;41294;42.666;23.350;2022-09-09T03:09:24;95222.50;;;17.74;98.04
55424;BME280;41294;42.666;23.350;2022-09-09T03:11:51;95220.25;;;17.61;98.85
55424;BME280;41294;42.666;23.350;2022-09-09T03:14:17;95221.94;;;17.59;98.83
55424;BME280;41294;42.666;23.350;2022-09-09T03:16:46;95231.06;;;17.52;99.24
55424;BME280;41294;42.666;23.350;2022-09-09T03:19:12;95225.59;;;17.67;98.57
55424;BME280;41294;42.666;23.350;2022-09-09T03:21:37;95220.50;;;17.69;98.27
55424;BME280;41294;42.666;23.350;2022-09-09T03:24:05;95216.41;;;17.68;98.33
55424;BME280;41294;42.666;23.350;2022-09-09T03:26:32;95226.81;;;17.66;98.22
55424;BME280;41294;42.666;23.350;2022-09-09T03:28:57;95208.84;;;17.61;98.34
55424;BME280;41294;42.666;23.350;2022-09-09T03:31:25;95220.88;;;17.51;98.95
55424;BME280;41294;42.666;23.350;2022-09-09T03:33:57;95228.44;;;17.58;98.90
55424;BME280;41294;42.666;23.350;2022-09-09T03:36:25;95222.34;;;17.52;99.26
55424;BME280;41294;42.666;23.350;2022-09-09T03:38:51;95225.53;;;17.56;98.88
55424;BME280;41294;42.666;23.350;2022-09-09T03:41:17;95225.25;;;17.54;98.89
55424;BME280;41294;42.666;23.350;2022-09-09T03:43:43;95218.91;;;17.46;99.22
55424;BME280;41294;42.666;23.350;2022-09-09T03:46:09;95214.13;;;17.55;99.22
55424;BME280;41294;42.666;23.350;2022-09-09T03:48:34;95214.84;;;17.50;99.34
55424;BME280;41294;42.666;23.350;2022-09-09T03:50:59;95224.47;;;17.42;99.61
55424;BME280;41294;42.666;23.350;2022-09-09T03:53:27;95221.41;;;17.55;99.30
55424;BME280;41294;42.666;23.350;2022-09-09T03:55:54;95222.63;;;17.59;99.19
55424;BME280;41294;42.666;23.350;2022-09-09T03:58:21;95225.03;;;17.57;98.92
55424;BME280;41294;42.666;23.350;2022-09-09T04:00:56;95225.19;;;17.43;99.63
55424;BME280;41294;42.666;23.350;2022-09-09T04:03:23;95220.16;;;17.50;99.78
55424;BME280;41294;42.666;23.350;2022-09-09T04:05:50;95241.25;;;17.54;99.66
55424;BME280;41294;42.666;23.350;2022-09-09T04:08:16;95232.56;;;17.59;98.96
55424;BME280;41294;42.666;23.350;2022-09-09T04:10:45;95235.69;;;17.57;99.05
55424;BME280;41294;42.666;23.350;2022-09-09T04:13:12;95228.91;;;17.56;98.84
55424;BME280;41294;42.666;23.350;2022-09-09T04:15:39;95229.44;;;17.60;99.35
55424;BME280;41294;42.666;23.350;2022-09-09T04:18:06;95228.97;;;17.67;98.81
55424;BME280;41294;42.666;23.350;2022-09-09T04:20:33;95227.81;;;17.74;98.35
55424;BME280;41294;42.666;23.350;2022-09-09T04:22:59;95221.03;;;17.73;98.38
55424;BME280;41294;42.666;23.350;2022-09-09T04:25:25;95227.16;;;17.90;97.69
55424;BME280;41294;42.666;23.350;2022-09-09T04:27:54;95223.31;;;17.91;98.08
55424;BME280;41294;42.666;23.350;2022-09-09T04:30:20;95222.78;;;18.39;96.00
55424;BME280;41294;42.666;23.350;2022-09-09T04:32:46;95230.72;;;19.14;92.32
55424;BME280;41294;42.666;23.350;2022-09-09T04:35:12;95233.63;;;19.60;89.30
55424;BME280;41294;42.666;23.350;2022-09-09T04:37:37;95232.25;;;20.21;86.85
55424;BME280;41294;42.666;23.350;2022-09-09T04:40:03;95226.44;;;20.68;84.09
55424;BME280;41294;42.666;23.350;2022-09-09T04:42:28;95234.50;;;21.03;82.13
55424;BME280;41294;42.666;23.350;2022-09-09T04:44:54;95238.66;;;20.58;82.62
55424;BME280;41294;42.666;23.350;2022-09-09T04:47:19;95239.31;;;20.18;84.37
55424;BME280;41294;42.666;23.350;2022-09-09T04:49:45;95246.41;;;19.88;85.89
55424;BME280;41294;42.666;23.350;2022-09-09T04:52:10;95235.03;;;19.72;86.89
55424;BME280;41294;42.666;23.350;2022-09-09T04:54:36;95215.63;;;19.71;87.15
55424;BME280;41294;42.666;23.350;2022-09-09T04:57:01;95221.94;;;19.63;88.00
55424;BME280;41294;42.666;23.350;2022-09-09T04:59:27;95209.28;;;20.93;83.11
55424;BME280;41294;42.666;23.350;2022-09-09T05:01:52;95205.50;;;21.89;79.04
55424;BME280;41294;42.666;23.350;2022-09-09T05:04:20;95214.63;;;22.65;75.23
55424;BME280;41294;42.666;23.350;2022-09-09T05:06:45;95213.88;;;22.83;73.89
55424;BME280;41294;42.666;23.350;2022-09-09T05:09:11;95213.19;;;23.45;70.25
55424;BME280;41294;42.666;23.350;2022-09-09T05:11:37;95196.94;;;22.57;72.07
55424;BME280;41294;42.666;23.350;2022-09-09T05:14:03;95196.59;;;22.05;75.54
55424;BME280;41294;42.666;23.350;2022-09-09T05:16:29;95200.56;;;23.40;71.34
55424;BME280;41294;42.666;23.350;2022-09-09T05:18:55;95214.47;;;24.61;67.68
55424;BME280;41294;42.666;23.350;2022-09-09T05:21:23;95210.56;;;25.56;64.69
55424;BME280;41294;42.666;23.350;2022-09-09T05:23:50;95205.13;;;26.32;60.48
55424;BME280;41294;42.666;23.350;2022-09-09T05:26:18;95194.22;;;26.10;59.31
55424;BME280;41294;42.666;23.350;2022-09-09T05:28:44;95192.91;;;25.27;60.17
55424;BME280;41294;42.666;23.350;2022-09-09T05:31:11;95196.34;;;25.76;60.41
55424;BME280;41294;42.666;23.350;2022-09-09T05:33:38;95203.06;;;27.03;57.29
55424;BME280;41294;42.666;23.350;2022-09-09T05:36:10;95188.09;;;27.02;54.81
55424;BME280;41294;42.666;23.350;2022-09-09T05:38:38;95194.22;;;27.03;55.32
55424;BME280;41294;42.666;23.350;2022-09-09T05:41:05;95193.72;;;27.49;54.26
55424;BME280;41294;42.666;23.350;2022-09-09T05:43:30;95197.50;;;27.91;52.67
55424;BME280;41294;42.666;23.350;2022-09-09T05:46:05;95208.63;;;28.32;52.10
55424;BME280;41294;42.666;23.350;2022-09-09T05:48:38;95206.66;;;28.79;51.47
55424;BME280;41294;42.666;23.350;2022-09-09T05:51:05;95208.13;;;29.36;49.50
55424;BME280;41294;42.666;23.350;2022-09-09T05:53:35;95198.75;;;29.79;47.51
55424;BME280;41294;42.666;23.350;2022-09-09T05:56:04;95194.53;;;29.44;46.08
55424;BME280;41294;42.666;23.350;2022-09-09T05:58:33;95198.44;;;26.68;51.87
55424;BME280;41294;42.666;23.350;2022-09-09T06:03:29;95202.13;;;29.38;47.15
55424;BME280;41294;42.666;23.350;2022-09-09T06:06:02;95212.88;;;29.28;46.56
55424;BME280;41294;42.666;23.350;2022-09-09T06:08:31;95215.63;;;29.94;46.10
55424;BME280;41294;42.666;23.350;2022-09-09T06:11:08;95214.00;;;30.49;44.63
55424;BME280;41294;42.666;23.350;2022-09-09T06:13:34;95213.16;;;30.06;45.82
55424;BME280;41294;42.666;23.350;2022-09-09T06:16:03;95217.81;;;30.29;45.13
55424;BME280;41294;42.666;23.350;2022-09-09T06:18:29;95207.03;;;30.56;44.79
55424;BME280;41294;42.666;23.350;2022-09-09T06:20:59;95209.34;;;30.59;44.08
55424;BME280;41294;42.666;23.350;2022-09-09T06:23:27;95212.38;;;30.63;44.20
55424;BME280;41294;42.666;23.350;2022-09-09T06:28:28;95211.50;;;30.27;45.15
55424;BME280;41294;42.666;23.350;2022-09-09T06:31:08;95219.53;;;31.02;44.33
55424;BME280;41294;42.666;23.350;2022-09-09T06:33:38;95211.50;;;31.04;43.64
55424;BME280;41294;42.666;23.350;2022-09-09T06:36:11;95214.72;;;31.46;41.92
55424;BME280;41294;42.666;23.350;2022-09-09T06:38:37;95199.91;;;30.43;43.72
55424;BME280;41294;42.666;23.350;2022-09-09T06:41:02;95200.22;;;30.30;43.13
55424;BME280;41294;42.666;23.350;2022-09-09T06:43:28;95197.94;;;29.69;45.44
55424;BME280;41294;42.666;23.350;2022-09-09T06:48:26;95195.91;;;30.10;44.88
55424;BME280;41294;42.666;23.350;2022-09-09T06:51:13;95200.47;;;30.85;42.93
55424;BME280;41294;42.666;23.350;2022-09-09T06:53:40;95210.75;;;31.30;42.09
55424;BME280;41294;42.666;23.350;2022-09-09T06:58:43;95212.09;;;31.12;41.03
55424;BME280;41294;42.666;23.350;2022-09-09T07:01:12;95211.31;;;31.19;41.43
55424;BME280;41294;42.666;23.350;2022-09-09T07:03:39;95218.00;;;28.38;46.01
55424;BME280;41294;42.666;23.350;2022-09-09T07:06:06;95217.53;;;26.28;50.49
55424;BME280;41294;42.666;23.350;2022-09-09T07:08:32;95213.34;;;26.19;51.78
55424;BME280;41294;42.666;23.350;2022-09-09T07:11:06;95219.91;;;27.47;48.85
55424;BME280;41294;42.666;23.350;2022-09-09T07:13:32;95219.13;;;28.13;46.87
55424;BME280;41294;42.666;23.350;2022-09-09T07:16:09;95193.53;;;26.17;52.18
55424;BME280;41294;42.666;23.350;2022-09-09T07:18:35;95209.44;;;28.96;46.39
55424;BME280;41294;42.666;23.350;2022-09-09T07:21:02;95205.69;;;30.13;43.84
55424;BME280;41294;42.666;23.350;2022-09-09T07:23:29;95206.56;;;30.50;43.36
55424;BME280;41294;42.666;23.350;2022-09-09T07:25:55;95208.44;;;31.17;41.65
55424;BME280;41294;42.666;23.350;2022-09-09T07:28:21;95196.13;;;31.61;41.14
55424;BME280;41294;42.666;23.350;2022-09-09T07:30:59;95198.38;;;32.00;40.57
55424;BME280;41294;42.666;23.350;2022-09-09T07:33:26;95196.13;;;31.61;41.05
55424;BME280;41294;42.666;23.350;2022-09-09T07:35:52;95190.00;;;30.38;42.62
55424;BME280;41294;42.666;23.350;2022-09-09T07:38:19;95191.16;;;28.57;45.31
55424;BME280;41294;42.666;23.350;2022-09-09T07:40:45;95192.09;;;27.39;47.85
55424;BME280;41294;42.666;23.350;2022-09-09T07:43:11;95195.63;;;28.70;45.85
55424;BME280;41294;42.666;23.350;2022-09-09T07:45:37;95199.56;;;28.91;44.41
55424;BME280;41294;42.666;23.350;2022-09-09T07:48:03;95202.97;;;30.13;43.10
55424;BME280;41294;42.666;23.350;2022-09-09T07:50:29;95200.75;;;29.29;43.17
55424;BME280;41294;42.666;23.350;2022-09-09T07:52:55;95207.25;;;27.49;46.33
55424;BME280;41294;42.666;23.350;2022-09-09T07:55:21;95195.72;;;27.71;46.47
55424;BME280;41294;42.666;23.350;2022-09-09T07:57:50;95207.28;;;27.71;47.73
55424;BME280;41294;42.666;23.350;2022-09-09T08:00:16;95205.09;;;29.01;44.88
55424;BME280;41294;42.666;23.350;2022-09-09T08:02:41;95196.09;;;29.47;43.38
55424;BME280;41294;42.666;23.350;2022-09-09T08:05:07;95192.72;;;29.63;42.35
55424;BME280;41294;42.666;23.350;2022-09-09T08:07:32;95193.81;;;30.69;41.64
55424;BME280;41294;42.666;23.350;2022-09-09T08:09:58;95197.84;;;32.21;38.91
55424;BME280;41294;42.666;23.350;2022-09-09T08:12:24;95198.06;;;33.10;37.56
55424;BME280;41294;42.666;23.350;2022-09-09T08:14:49;95189.28;;;31.70;39.27
55424;BME280;41294;42.666;23.350;2022-09-09T08:17:16;95192.50;;;30.27;40.82
55424;BME280;41294;42.666;23.350;2022-09-09T08:19:42;95200.41;;;27.78;45.87
55424;BME280;41294;42.666;23.350;2022-09-09T08:22:07;95189.22;;;27.37;46.97
55424;BME280;41294;42.666;23.350;2022-09-09T08:24:33;95187.50;;;28.31;45.25
55424;BME280;41294;42.666;23.350;2022-09-09T08:26:59;95194.19;;;28.30;45.32
55424;BME280;41294;42.666;23.350;2022-09-09T08:29:24;95190.38;;;28.79;44.25
55424;BME280;41294;42.666;23.350;2022-09-09T08:31:55;95183.25;;;29.23;43.22
55424;BME280;41294;42.666;23.350;2022-09-09T08:34:23;95196.31;;;29.17;44.09
55424;BME280;41294;42.666;23.350;2022-09-09T08:36:49;95181.25;;;29.48;44.02
55424;BME280;41294;42.666;23.350;2022-09-09T08:39:17;95182.78;;;29.10;44.17
55424;BME280;41294;42.666;23.350;2022-09-09T08:52:53;95177.69;;;27.66;48.40
55424;BME280;41294;42.666;23.350;2022-09-09T08:58:04;95179.97;;;29.00;45.76
55424;BME280;41294;42.666;23.350;2022-09-09T09:11:39;95172.94;;;29.46;44.65
55424;BME280;41294;42.666;23.350;2022-09-09T09:17:13;95178.53;;;29.23;45.71
55424;BME280;41294;42.666;23.350;2022-09-09T09:19:41;95176.94;;;29.21;45.46
55424;BME280;41294;42.666;23.350;2022-09-09T09:22:18;95170.41;;;29.48;45.01
55424;BME280;41294;42.666;23.350;2022-09-09T09:25:02;95163.22;;;29.43;44.83
55424;BME280;41294;42.666;23.350;2022-09-09T09:30:34;95158.66;;;29.21;45.34
55424;BME280;41294;42.666;23.350;2022-09-09T09:33:08;95169.38;;;29.36;45.38
55424;BME280;41294;42.666;23.350;2022-09-09T09:35:38;95166.13;;;29.13;45.23
55424;BME280;41294;42.666;23.350;2022-09-09T09:38:30;95165.47;;;29.29;44.58
55424;BME280;41294;42.666;23.350;2022-09-09T09:40:58;95162.09;;;29.46;44.34
55424;BME280;41294;42.666;23.350;2022-09-09T09:43:29;95162.22;;;29.97;44.09
55424;BME280;41294;42.666;23.350;2022-09-09T09:45:55;95153.94;;;29.87;43.94
55424;BME280;41294;42.666;23.350;2022-09-09T09:48:23;95154.28;;;30.08;43.73
55424;BME280;41294;42.666;23.350;2022-09-09T09:51:10;95146.38;;;28.96;45.49
55424;BME280;41294;42.666;23.350;2022-09-09T09:53:38;95146.91;;;28.94;46.27
55424;BME280;41294;42.666;23.350;2022-09-09T09:56:06;95144.72;;;29.49;45.45
55424;BME280;41294;42.666;23.350;2022-09-09T09:58:49;95141.38;;;29.58;45.01
55424;BME280;41294;42.666;23.350;2022-09-09T10:01:30;95132.28;;;29.80;44.79
55424;BME280;41294;42.666;23.350;2022-09-09T10:04:12;95137.16;;;29.81;45.32
55424;BME280;41294;42.666;23.350;2022-09-09T10:06:39;95138.19;;;29.86;44.65
55424;BME280;41294;42.666;23.350;2022-09-09T10:09:37;95148.22;;;30.00;44.54
55424;BME280;41294;42.666;23.350;2022-09-09T10:15:05;95146.97;;;29.60;44.96
55424;BME280;41294;42.666;23.350;2022-09-09T10:18:38;95143.41;;;28.38;46.91
55424;BME280;41294;42.666;23.350;2022-09-09T10:21:12;95153.66;;;28.46;48.03
55424;BME280;41294;42.666;23.350;2022-09-09T10:26:55;95151.97;;;28.58;48.72
55424;BME280;41294;42.666;23.350;2022-09-09T10:29:47;95153.19;;;28.65;48.65
55424;BME280;41294;42.666;23.350;2022-09-09T10:34:57;95154.84;;;28.60;48.27
55424;BME280;41294;42.666;23.350;2022-09-09T10:45:54;95159.88;;;28.25;48.36
55424;BME280;41294;42.666;23.350;2022-09-09T10:51:34;95155.91;;;28.26;50.61
55424;BME280;41294;42.666;23.350;2022-09-09T10:57:11;95153.75;;;28.17;51.22
55424;BME280;41294;42.666;23.350;2022-09-09T10:59:44;95155.91;;;28.18;51.18
55424;BME280;41294;42.666;23.350;2022-09-09T11:02:27;95158.44;;;28.24;50.42
55424;BME280;41294;42.666;23.350;2022-09-09T11:04:57;95151.97;;;28.12;51.51
55424;BME280;41294;42.666;23.350;2022-09-09T11:10:22;95155.97;;;28.03;51.88
55424;BME280;41294;42.666;23.350;2022-09-09T11:12:52;95164.28;;;27.98;52.89
55424;BME280;41294;42.666;23.350;2022-09-09T11:15:33;95157.47;;;27.82;52.24
55424;BME280;41294;42.666;23.350;2022-09-09T11:18:04;95154.94;;;27.84;51.47
55424;BME280;41294;42.666;23.350;2022-09-09T11:20:30;95145.19;;;27.81;51.14
55424;BME280;41294;42.666;23.350;2022-09-09T11:23:10;95151.28;;;27.89;51.19
55424;BME280;41294;42.666;23.350;2022-09-09T11:25:44;95146.28;;;27.48;52.77
55424;BME280;41294;42.666;23.350;2022-09-09T11:28:42;95140.19;;;27.18;52.76
55424;BME280;41294;42.666;23.350;2022-09-09T11:31:21;95134.94;;;27.27;52.49
55424;BME280;41294;42.666;23.350;2022-09-09T11:44:39;95108.44;;;27.03;55.37
55424;BME280;41294;42.666;23.350;2022-09-09T11:49:44;95095.97;;;27.45;54.15
55424;BME280;41294;42.666;23.350;2022-09-09T11:52:37;95076.66;;;27.56;53.64
55424;BME280;41294;42.666;23.350;2022-09-09T11:55:25;95054.00;;;27.22;54.34
55424;BME280;41294;42.666;23.350;2022-09-09T11:58:00;95060.84;;;27.38;54.28
55424;BME280;41294;42.666;23.350;2022-09-09T12:00:40;95066.00;;;27.58;53.66
55424;BME280;41294;42.666;23.350;2022-09-09T12:06:24;95077.75;;;28.22;51.65
55424;BME280;41294;42.666;23.350;2022-09-09T12:08:55;95080.03;;;28.33;51.01
55424;BME280;41294;42.666;23.350;2022-09-09T12:11:29;95075.16;;;28.32;51.05
55424;BME280;41294;42.666;23.350;2022-09-09T12:13:59;95077.19;;;28.24;52.17
55424;BME280;41294;42.666;23.350;2022-09-09T12:16:37;95065.22;;;28.34;51.54
55424;BME280;41294;42.666;23.350;2022-09-09T12:19:23;95062.53;;;27.87;52.89
55424;BME280;41294;42.666;23.350;2022-09-09T12:22:07;95058.28;;;28.09;53.06
55424;BME280;41294;42.666;23.350;2022-09-09T12:27:40;95061.13;;;27.56;53.29
55424;BME280;41294;42.666;23.350;2022-09-09T12:30:14;95058.84;;;28.00;53.08
55424;BME280;41294;42.666;23.350;2022-09-09T12:32:41;95048.50;;;27.74;52.29
55424;BME280;41294;42.666;23.350;2022-09-09T12:35:26;95047.50;;;27.17;54.64
55424;BME280;41294;42.666;23.350;2022-09-09T12:37:59;95039.44;;;27.79;53.75
55424;BME280;41294;42.666;23.350;2022-09-09T12:40:28;95028.09;;;27.80;52.96
55424;BME280;41294;42.666;23.350;2022-09-09T12:42:54;95029.03;;;27.53;53.82
55424;BME280;41294;42.666;23.350;2022-09-09T12:45:24;95026.91;;;27.44;56.19
55424;BME280;41294;42.666;23.350;2022-09-09T12:50:29;95029.44;;;28.36;53.73
55424;BME280;41294;42.666;23.350;2022-09-09T12:52:58;95031.00;;;28.46;52.77
55424;BME280;41294;42.666;23.350;2022-09-09T12:55:28;95028.97;;;28.54;52.72
55424;BME280;41294;42.666;23.350;2022-09-09T12:57:56;95029.50;;;28.21;52.82
55424;BME280;41294;42.666;23.350;2022-09-09T13:00:25;95022.28;;;27.84;53.28
55424;BME280;41294;42.666;23.350;2022-09-09T13:02:56;95016.34;;;27.78;53.38
55424;BME280;41294;42.666;23.350;2022-09-09T13:05:33;95004.81;;;27.77;53.41
55424;BME280;41294;42.666;23.350;2022-09-09T13:08:04;95010.28;;;27.48;55.26
55424;BME280;41294;42.666;23.350;2022-09-09T13:10:33;95013.28;;;26.97;55.99
55424;BME280;41294;42.666;23.350;2022-09-09T13:13:01;95008.16;;;27.46;55.10
55424;BME280;41294;42.666;23.350;2022-09-09T13:15:29;95013.56;;;27.46;55.23
55424;BME280;41294;42.666;23.350;2022-09-09T13:18:01;95008.50;;;27.50;55.27
55424;BME280;41294;42.666;23.350;2022-09-09T13:20:30;94999.47;;;27.55;55.16
55424;BME280;41294;42.666;23.350;2022-09-09T13:22:57;94998.63;;;27.92;54.82
55424;BME280;41294;42.666;23.350;2022-09-09T13:25:29;94995.03;;;28.21;54.69
55424;BME280;41294;42.666;23.350;2022-09-09T13:28:04;94992.34;;;27.82;54.53
55424;BME280;41294;42.666;23.350;2022-09-09T13:35:27;94984.75;;;28.20;53.84
55424;BME280;41294;42.666;23.350;2022-09-09T13:37:53;94973.91;;;28.20;53.94
55424;BME280;41294;42.666;23.350;2022-09-09T13:40:23;94978.59;;;28.19;54.79
55424;BME280;41294;42.666;23.350;2022-09-09T13:42:52;94979.38;;;27.80;54.40
55424;BME280;41294;42.666;23.350;2022-09-09T13:45:22;94981.56;;;27.05;56.97
55424;BME280;41294;42.666;23.350;2022-09-09T13:47:49;94977.25;;;27.02;57.76
55424;BME280;41294;42.666;23.350;2022-09-09T13:50:26;94970.84;;;27.37;56.88
55424;BME280;41294;42.666;23.350;2022-09-09T13:52:54;94962.03;;;27.22;56.54
55424;BME280;41294;42.666;23.350;2022-09-09T13:55:22;94970.66;;;27.43;56.38
55424;BME280;41294;42.666;23.350;2022-09-09T14:00:26;94969.13;;;27.56;56.13
55424;BME280;41294;42.666;23.350;2022-09-09T14:02:53;94961.72;;;27.18;57.42
55424;BME280;41294;42.666;23.350;2022-09-09T14:05:21;94964.88;;;27.39;56.92
55424;BME280;41294;42.666;23.350;2022-09-09T14:07:47;94962.34;;;27.41;56.56
55424;BME280;41294;42.666;23.350;2022-09-09T14:10:14;94967.69;;;27.70;56.50
55424;BME280;41294;42.666;23.350;2022-09-09T14:12:40;94970.34;;;27.31;56.25
55424;BME280;41294;42.666;23.350;2022-09-09T14:15:07;94961.34;;;27.21;56.67
55424;BME280;41294;42.666;23.350;2022-09-09T14:17:35;94951.28;;;27.14;57.19
55424;BME280;41294;42.666;23.350;2022-09-09T14:20:04;94957.19;;;27.20;55.87
55424;BME280;41294;42.666;23.350;2022-09-09T14:22:33;94953.25;;;27.14;57.18
55424;BME280;41294;42.666;23.350;2022-09-09T14:24:59;94954.50;;;27.20;56.78
55424;BME280;41294;42.666;23.350;2022-09-09T14:27:25;94949.00;;;27.43;56.35
55424;BME280;41294;42.666;23.350;2022-09-09T14:29:51;94953.72;;;27.42;55.99
55424;BME280;41294;42.666;23.350;2022-09-09T14:32:17;94950.09;;;27.40;55.09
55424;BME280;41294;42.666;23.350;2022-09-09T14:34:43;94948.69;;;27.31;55.59
55424;BME280;41294;42.666;23.350;2022-09-09T14:37:08;94961.16;;;27.19;55.47
55424;BME280;41294;42.666;23.350;2022-09-09T14:39:34;94952.38;;;26.89;55.65
55424;BME280;41294;42.666;23.350;2022-09-09T14:41:59;94953.25;;;26.91;56.34
55424;BME280;41294;42.666;23.350;2022-09-09T14:44:27;94948.38;;;27.12;56.33
55424;BME280;41294;42.666;23.350;2022-09-09T14:46:53;94943.16;;;26.99;55.80
55424;BME280;41294;42.666;23.350;2022-09-09T14:49:19;94948.03;;;27.08;56.16
55424;BME280;41294;42.666;23.350;2022-09-09T14:51:44;94947.06;;;27.28;55.71
55424;BME280;41294;42.666;23.350;2022-09-09T14:54:10;94941.84;;;27.23;55.27
55424;BME280;41294;42.666;23.350;2022-09-09T14:56:36;94940.59;;;27.24;56.67
55424;BME280;41294;42.666;23.350;2022-09-09T14:59:02;94946.44;;;27.05;56.02
55424;BME280;41294;42.666;23.350;2022-09-09T15:01:29;94947.69;;;26.89;56.63
55424;BME280;41294;42.666;23.350;2022-09-09T15:03:59;94952.41;;;26.66;57.82
55424;BME280;41294;42.666;23.350;2022-09-09T15:06:28;94955.25;;;26.83;57.81
55424;BME280;41294;42.666;23.350;2022-09-09T15:08:54;94955.97;;;26.99;57.22
55424;BME280;41294;42.666;23.350;2022-09-09T15:11:23;94958.84;;;27.08;57.49
55424;BME280;41294;42.666;23.350;2022-09-09T15:13:51;94969.66;;;26.93;57.24
55424;BME280;41294;42.666;23.350;2022-09-09T15:16:23;94972.88;;;26.99;56.71